Prachuap Khirikhan, Thailand
Current Conditions -  °F | °C
As of 5:00 PM on Thursday 18 Dec 2014 (Local Time) from VTBU Reporting Station
Haze Haze  
Wind Chill: 28°   Ceiling: 30000
Heat Index: 29°   Visibility: 1.8mi
Dew Point: 17°   Wind: 9mph
Humidity: 51%   Direction: 10°N
Pressure: 29.88"   Gusts: NA
Location:  11.83°N, 99.83°E
Report Text: VTBU 181000Z 01008KT 3000 HZ FEW025 BKN300 28/17 Q1012 A2991
Loading
Personal Weather Stations






























Interactive Weather Map New forecast layout! Learn more

10-Day Weather Forecast

Advertisements
Track Severe Weather on mobile